sensor_id;sensor_type;location;lat;lon;timestamp;pressure;altitude;pressure_sealevel;temperature;humidity
3464;BME280;3551;41.578;24.706;2022-09-17T00:00:36;90666.03;;;17.75;91.38
3464;BME280;3551;41.578;24.706;2022-09-17T00:03:04;90668.31;;;17.85;90.48
3464;BME280;3551;41.578;24.706;2022-09-17T00:05:31;90696.41;;;17.79;90.32
3464;BME280;3551;41.578;24.706;2022-09-17T00:08:00;90668.91;;;17.80;90.19
3464;BME280;3551;41.578;24.706;2022-09-17T00:10:27;90659.91;;;17.92;89.86
3464;BME280;3551;41.578;24.706;2022-09-17T00:12:54;90661.28;;;17.97;89.67
3464;BME280;3551;41.578;24.706;2022-09-17T00:15:21;90663.06;;;18.00;90.22
3464;BME280;3551;41.578;24.706;2022-09-17T00:17:52;90641.72;;;17.93;89.29
3464;BME280;3551;41.578;24.706;2022-09-17T00:20:19;90656.00;;;18.03;89.49
3464;BME280;3551;41.578;24.706;2022-09-17T00:22:46;90645.59;;;17.65;89.48
3464;BME280;3551;41.578;24.706;2022-09-17T00:25:15;90651.00;;;17.74;89.20
3464;BME280;3551;41.578;24.706;2022-09-17T00:27:42;90658.22;;;17.68;89.53
3464;BME280;3551;41.578;24.706;2022-09-17T00:30:11;90660.81;;;17.80;89.37
3464;BME280;3551;41.578;24.706;2022-09-17T00:32:38;90637.00;;;17.57;89.54
3464;BME280;3551;41.578;24.706;2022-09-17T00:35:06;90653.69;;;17.65;90.43
3464;BME280;3551;41.578;24.706;2022-09-17T00:37:33;90642.47;;;17.35;91.53
3464;BME280;3551;41.578;24.706;2022-09-17T00:40:00;90660.69;;;17.53;91.02
3464;BME280;3551;41.578;24.706;2022-09-17T00:42:28;90648.28;;;17.65;91.69
3464;BME280;3551;41.578;24.706;2022-09-17T00:44:56;90656.84;;;17.72;90.79
3464;BME280;3551;41.578;24.706;2022-09-17T00:47:26;90658.81;;;17.63;90.60
3464;BME280;3551;41.578;24.706;2022-09-17T00:49:57;90696.97;;;17.34;92.48
3464;BME280;3551;41.578;24.706;2022-09-17T00:52:28;90653.19;;;17.48;91.28
3464;BME280;3551;41.578;24.706;2022-09-17T00:55:04;90657.44;;;17.58;90.99
3464;BME280;3551;41.578;24.706;2022-09-17T00:57:34;90629.38;;;17.34;90.31
3464;BME280;3551;41.578;24.706;2022-09-17T01:00:03;90672.47;;;17.59;90.69
3464;BME280;3551;41.578;24.706;2022-09-17T01:02:31;90676.59;;;17.42;91.15
3464;BME280;3551;41.578;24.706;2022-09-17T01:04:58;90656.69;;;17.58;90.03
3464;BME280;3551;41.578;24.706;2022-09-17T01:07:41;90647.38;;;17.59;91.24
3464;BME280;3551;41.578;24.706;2022-09-17T01:10:22;90657.69;;;17.51;90.80
3464;BME280;3551;41.578;24.706;2022-09-17T01:13:05;90673.34;;;17.25;91.87
3464;BME280;3551;41.578;24.706;2022-09-17T01:15:40;90672.91;;;17.58;90.49
3464;BME280;3551;41.578;24.706;2022-09-17T01:18:23;90664.25;;;17.41;90.57
3464;BME280;3551;41.578;24.706;2022-09-17T01:24:26;90665.66;;;17.15;92.28
3464;BME280;3551;41.578;24.706;2022-09-17T01:27:33;90661.41;;;17.35;91.58
3464;BME280;3551;41.578;24.706;2022-09-17T01:30:17;90624.88;;;17.22;91.17
3464;BME280;3551;41.578;24.706;2022-09-17T01:32:51;90667.53;;;17.27;91.61
3464;BME280;3551;41.578;24.706;2022-09-17T01:35:27;90664.19;;;17.23;92.09
3464;BME280;3551;41.578;24.706;2022-09-17T01:38:02;90654.78;;;16.97;93.68
3464;BME280;3551;41.578;24.706;2022-09-17T01:40:39;90661.63;;;17.19;93.19
3464;BME280;3551;41.578;24.706;2022-09-17T01:43:13;90669.38;;;17.08;93.29
3464;BME280;3551;41.578;24.706;2022-09-17T01:45:49;90667.91;;;17.07;94.14
3464;BME280;3551;41.578;24.706;2022-09-17T01:48:19;90664.16;;;17.14;94.16
3464;BME280;3551;41.578;24.706;2022-09-17T01:50:52;90649.06;;;16.95;94.49
3464;BME280;3551;41.578;24.706;2022-09-17T01:53:23;90665.19;;;17.07;93.72
3464;BME280;3551;41.578;24.706;2022-09-17T01:55:53;90685.38;;;16.94;94.73
3464;BME280;3551;41.578;24.706;2022-09-17T01:58:24;90667.63;;;16.83;95.46
3464;BME280;3551;41.578;24.706;2022-09-17T02:00:56;90638.47;;;16.78;94.45
3464;BME280;3551;41.578;24.706;2022-09-17T02:03:28;90651.06;;;17.03;93.64
3464;BME280;3551;41.578;24.706;2022-09-17T02:05:59;90648.31;;;17.25;93.99
3464;BME280;3551;41.578;24.706;2022-09-17T02:08:30;90631.13;;;16.79;94.75
3464;BME280;3551;41.578;24.706;2022-09-17T02:11:05;90622.31;;;16.87;93.26
3464;BME280;3551;41.578;24.706;2022-09-17T02:13:37;90643.59;;;17.16;93.77
3464;BME280;3551;41.578;24.706;2022-09-17T02:16:09;90623.78;;;17.10;93.39
3464;BME280;3551;41.578;24.706;2022-09-17T02:18:44;90630.66;;;17.11;92.01
3464;BME280;3551;41.578;24.706;2022-09-17T02:21:21;90641.19;;;17.09;91.86
3464;BME280;3551;41.578;24.706;2022-09-17T02:23:59;90655.09;;;16.99;91.77
3464;BME280;3551;41.578;24.706;2022-09-17T02:26:31;90631.25;;;17.06;91.50
3464;BME280;3551;41.578;24.706;2022-09-17T02:29:06;90624.84;;;16.82;92.12
3464;BME280;3551;41.578;24.706;2022-09-17T02:31:33;90625.13;;;17.15;91.80
3464;BME280;3551;41.578;24.706;2022-09-17T02:34:03;90627.81;;;17.06;91.72
3464;BME280;3551;41.578;24.706;2022-09-17T02:36:31;90618.69;;;17.12;91.59
3464;BME280;3551;41.578;24.706;2022-09-17T02:39:00;90605.56;;;17.02;90.87
3464;BME280;3551;41.578;24.706;2022-09-17T02:41:35;90607.88;;;17.12;90.49
3464;BME280;3551;41.578;24.706;2022-09-17T02:44:16;90623.44;;;16.68;92.01
3464;BME280;3551;41.578;24.706;2022-09-17T02:46:55;90613.44;;;16.87;91.76
3464;BME280;3551;41.578;24.706;2022-09-17T02:49:50;90610.59;;;16.81;93.01
3464;BME280;3551;41.578;24.706;2022-09-17T02:52:33;90614.03;;;16.82;93.23
3464;BME280;3551;41.578;24.706;2022-09-17T02:55:12;90612.06;;;16.73;93.73
3464;BME280;3551;41.578;24.706;2022-09-17T02:57:46;90606.91;;;16.45;94.59
3464;BME280;3551;41.578;24.706;2022-09-17T03:00:19;90604.47;;;16.59;95.42
3464;BME280;3551;41.578;24.706;2022-09-17T03:02:49;90583.03;;;16.34;97.62
3464;BME280;3551;41.578;24.706;2022-09-17T03:05:22;90588.84;;;16.32;96.61
3464;BME280;3551;41.578;24.706;2022-09-17T03:07:49;90578.75;;;16.46;95.96
3464;BME280;3551;41.578;24.706;2022-09-17T03:10:17;90607.81;;;16.63;95.80
3464;BME280;3551;41.578;24.706;2022-09-17T03:12:44;90597.13;;;16.38;96.74
3464;BME280;3551;41.578;24.706;2022-09-17T03:15:11;90605.84;;;16.64;95.53
3464;BME280;3551;41.578;24.706;2022-09-17T03:17:38;90614.66;;;16.55;95.84
3464;BME280;3551;41.578;24.706;2022-09-17T03:20:05;90598.34;;;16.37;95.57
3464;BME280;3551;41.578;24.706;2022-09-17T03:22:34;90601.66;;;16.41;95.93
3464;BME280;3551;41.578;24.706;2022-09-17T03:25:01;90609.91;;;16.47;94.98
3464;BME280;3551;41.578;24.706;2022-09-17T03:27:29;90610.38;;;16.23;95.13
3464;BME280;3551;41.578;24.706;2022-09-17T03:29:56;90610.84;;;16.53;95.29
3464;BME280;3551;41.578;24.706;2022-09-17T03:32:23;90582.31;;;16.43;95.10
3464;BME280;3551;41.578;24.706;2022-09-17T03:34:50;90607.19;;;16.59;94.56
3464;BME280;3551;41.578;24.706;2022-09-17T03:37:18;90571.91;;;16.32;95.72
3464;BME280;3551;41.578;24.706;2022-09-17T03:39:47;90609.38;;;16.52;94.16
3464;BME280;3551;41.578;24.706;2022-09-17T03:42:14;90562.00;;;16.29;94.42
3464;BME280;3551;41.578;24.706;2022-09-17T03:44:41;90578.94;;;16.51;93.46
3464;BME280;3551;41.578;24.706;2022-09-17T03:47:08;90575.88;;;16.40;94.35
3464;BME280;3551;41.578;24.706;2022-09-17T03:49:36;90560.31;;;16.53;94.08
3464;BME280;3551;41.578;24.706;2022-09-17T03:52:03;90580.69;;;16.45;93.60
3464;BME280;3551;41.578;24.706;2022-09-17T03:54:30;90575.47;;;16.29;94.78
3464;BME280;3551;41.578;24.706;2022-09-17T03:56:59;90533.66;;;16.24;93.97
3464;BME280;3551;41.578;24.706;2022-09-17T03:59:26;90562.69;;;16.20;94.67
3464;BME280;3551;41.578;24.706;2022-09-17T04:01:54;90565.16;;;16.27;94.53
3464;BME280;3551;41.578;24.706;2022-09-17T04:04:22;90582.31;;;16.43;93.18
3464;BME280;3551;41.578;24.706;2022-09-17T04:06:49;90564.91;;;16.44;93.24
3464;BME280;3551;41.578;24.706;2022-09-17T04:09:16;90564.75;;;16.38;94.32
3464;BME280;3551;41.578;24.706;2022-09-17T04:11:43;90550.00;;;16.52;93.61
3464;BME280;3551;41.578;24.706;2022-09-17T04:14:11;90539.88;;;16.12;95.83
3464;BME280;3551;41.578;24.706;2022-09-17T04:16:38;90554.28;;;16.18;95.02
3464;BME280;3551;41.578;24.706;2022-09-17T04:19:05;90532.19;;;16.32;94.32
3464;BME280;3551;41.578;24.706;2022-09-17T04:21:32;90519.88;;;15.79;96.59
3464;BME280;3551;41.578;24.706;2022-09-17T04:23:59;90553.47;;;16.09;96.66
3464;BME280;3551;41.578;24.706;2022-09-17T04:26:26;90538.69;;;16.13;96.86
3464;BME280;3551;41.578;24.706;2022-09-17T04:28:53;90526.22;;;16.38;95.24
3464;BME280;3551;41.578;24.706;2022-09-17T04:31:22;90559.16;;;16.32;95.92
3464;BME280;3551;41.578;24.706;2022-09-17T04:33:49;90541.16;;;16.29;95.34
3464;BME280;3551;41.578;24.706;2022-09-17T04:36:16;90515.88;;;16.36;95.13
3464;BME280;3551;41.578;24.706;2022-09-17T04:38:43;90527.94;;;16.53;94.60
3464;BME280;3551;41.578;24.706;2022-09-17T04:41:13;90510.91;;;16.34;93.83
3464;BME280;3551;41.578;24.706;2022-09-17T04:43:40;90533.03;;;16.51;94.11
3464;BME280;3551;41.578;24.706;2022-09-17T04:46:07;90535.50;;;16.37;93.66
3464;BME280;3551;41.578;24.706;2022-09-17T04:48:35;90519.44;;;16.55;92.87
3464;BME280;3551;41.578;24.706;2022-09-17T04:51:03;90539.00;;;17.35;90.10
3464;BME280;3551;41.578;24.706;2022-09-17T04:53:30;90514.41;;;18.15;83.90
3464;BME280;3551;41.578;24.706;2022-09-17T04:55:57;90527.41;;;18.94;79.55
3464;BME280;3551;41.578;24.706;2022-09-17T04:58:24;90520.91;;;19.57;75.01
3464;BME280;3551;41.578;24.706;2022-09-17T05:00:51;90536.91;;;19.94;73.29
3464;BME280;3551;41.578;24.706;2022-09-17T05:03:17;90534.19;;;20.32;71.89
3464;BME280;3551;41.578;24.706;2022-09-17T05:05:46;90532.22;;;20.62;69.52
3464;BME280;3551;41.578;24.706;2022-09-17T05:08:13;90531.44;;;20.91;68.76
3464;BME280;3551;41.578;24.706;2022-09-17T05:10:40;90524.78;;;21.06;69.11
3464;BME280;3551;41.578;24.706;2022-09-17T05:13:07;90512.16;;;20.89;67.71
3464;BME280;3551;41.578;24.706;2022-09-17T05:15:34;90523.13;;;20.80;67.83
3464;BME280;3551;41.578;24.706;2022-09-17T05:18:00;90511.03;;;20.81;68.99
3464;BME280;3551;41.578;24.706;2022-09-17T05:20:27;90518.50;;;21.00;69.21
3464;BME280;3551;41.578;24.706;2022-09-17T05:22:56;90519.19;;;20.81;68.93
3464;BME280;3551;41.578;24.706;2022-09-17T05:25:23;90545.16;;;21.31;69.35
3464;BME280;3551;41.578;24.706;2022-09-17T05:27:50;90537.91;;;21.43;68.34
3464;BME280;3551;41.578;24.706;2022-09-17T05:30:17;90533.09;;;21.52;68.14
3464;BME280;3551;41.578;24.706;2022-09-17T05:32:44;90523.38;;;21.46;67.58
3464;BME280;3551;41.578;24.706;2022-09-17T05:35:11;90517.16;;;21.80;66.78
3464;BME280;3551;41.578;24.706;2022-09-17T05:37:38;90516.91;;;21.63;66.11
3464;BME280;3551;41.578;24.706;2022-09-17T05:40:08;90505.06;;;21.86;64.23
3464;BME280;3551;41.578;24.706;2022-09-17T05:42:35;90524.00;;;21.55;65.33
3464;BME280;3551;41.578;24.706;2022-09-17T05:45:02;90512.59;;;21.92;65.31
3464;BME280;3551;41.578;24.706;2022-09-17T05:47:30;90520.19;;;22.08;64.75
3464;BME280;3551;41.578;24.706;2022-09-17T05:49:56;90518.69;;;22.53;64.30
3464;BME280;3551;41.578;24.706;2022-09-17T05:52:26;90538.25;;;22.77;63.82
3464;BME280;3551;41.578;24.706;2022-09-17T05:54:54;90507.34;;;22.60;63.67
3464;BME280;3551;41.578;24.706;2022-09-17T05:57:23;90489.22;;;22.57;63.57
3464;BME280;3551;41.578;24.706;2022-09-17T05:59:50;90504.06;;;22.76;63.45
3464;BME280;3551;41.578;24.706;2022-09-17T06:02:17;90526.41;;;23.11;62.01
3464;BME280;3551;41.578;24.706;2022-09-17T06:04:44;90502.19;;;22.93;61.88
3464;BME280;3551;41.578;24.706;2022-09-17T06:07:11;90523.34;;;23.04;61.57
3464;BME280;3551;41.578;24.706;2022-09-17T06:09:38;90522.94;;;23.16;61.98
3464;BME280;3551;41.578;24.706;2022-09-17T06:12:06;90533.25;;;23.01;60.56
3464;BME280;3551;41.578;24.706;2022-09-17T06:14:34;90519.97;;;23.14;61.79
3464;BME280;3551;41.578;24.706;2022-09-17T06:17:02;90500.75;;;22.97;62.28
3464;BME280;3551;41.578;24.706;2022-09-17T06:19:28;90481.88;;;23.31;60.94
3464;BME280;3551;41.578;24.706;2022-09-17T06:21:55;90522.81;;;23.73;61.25
3464;BME280;3551;41.578;24.706;2022-09-17T06:24:22;90518.41;;;23.81;60.04
3464;BME280;3551;41.578;24.706;2022-09-17T06:26:50;90529.81;;;23.80;60.14
3464;BME280;3551;41.578;24.706;2022-09-17T06:29:17;90526.16;;;23.99;60.18
3464;BME280;3551;41.578;24.706;2022-09-17T06:31:46;90501.88;;;24.07;58.57
3464;BME280;3551;41.578;24.706;2022-09-17T06:34:13;90534.31;;;23.88;59.80
3464;BME280;3551;41.578;24.706;2022-09-17T06:36:40;90528.47;;;24.12;59.82
3464;BME280;3551;41.578;24.706;2022-09-17T06:39:07;90532.09;;;23.92;60.74
3464;BME280;3551;41.578;24.706;2022-09-17T06:41:36;90527.22;;;23.60;61.74
3464;BME280;3551;41.578;24.706;2022-09-17T06:44:03;90544.19;;;23.75;62.83
3464;BME280;3551;41.578;24.706;2022-09-17T06:46:30;90531.97;;;23.70;64.10
3464;BME280;3551;41.578;24.706;2022-09-17T06:48:58;90535.44;;;23.65;62.53
3464;BME280;3551;41.578;24.706;2022-09-17T06:51:25;90503.38;;;23.55;63.92
3464;BME280;3551;41.578;24.706;2022-09-17T06:53:52;90519.41;;;23.84;62.26
3464;BME280;3551;41.578;24.706;2022-09-17T06:56:19;90525.66;;;23.95;61.51
3464;BME280;3551;41.578;24.706;2022-09-17T06:58:46;90479.88;;;23.74;60.98
3464;BME280;3551;41.578;24.706;2022-09-17T07:01:13;90510.53;;;24.05;58.70
3464;BME280;3551;41.578;24.706;2022-09-17T07:03:41;90516.56;;;24.15;58.82
3464;BME280;3551;41.578;24.706;2022-09-17T07:06:10;90512.38;;;24.20;58.07
3464;BME280;3551;41.578;24.706;2022-09-17T07:08:38;90477.53;;;24.09;58.22
3464;BME280;3551;41.578;24.706;2022-09-17T07:11:05;90483.78;;;24.15;57.73
3464;BME280;3551;41.578;24.706;2022-09-17T07:13:32;90493.28;;;24.42;58.70
3464;BME280;3551;41.578;24.706;2022-09-17T07:16:01;90505.25;;;24.55;57.44
3464;BME280;3551;41.578;24.706;2022-09-17T07:18:28;90506.97;;;24.53;57.39
3464;BME280;3551;41.578;24.706;2022-09-17T07:20:57;90503.53;;;24.69;55.77
3464;BME280;3551;41.578;24.706;2022-09-17T07:23:27;90501.03;;;24.71;55.49
3464;BME280;3551;41.578;24.706;2022-09-17T07:25:56;90506.50;;;24.71;56.04
3464;BME280;3551;41.578;24.706;2022-09-17T07:28:24;90502.78;;;24.80;54.92
3464;BME280;3551;41.578;24.706;2022-09-17T07:30:51;90507.50;;;24.79;55.48
3464;BME280;3551;41.578;24.706;2022-09-17T07:33:20;90503.81;;;24.82;55.10
3464;BME280;3551;41.578;24.706;2022-09-17T07:35:52;90512.97;;;24.79;54.92
3464;BME280;3551;41.578;24.706;2022-09-17T07:38:19;90520.97;;;24.83;54.37
3464;BME280;3551;41.578;24.706;2022-09-17T07:40:56;90517.69;;;24.79;54.24
3464;BME280;3551;41.578;24.706;2022-09-17T07:43:24;90501.59;;;24.86;54.62
3464;BME280;3551;41.578;24.706;2022-09-17T07:45:52;90494.63;;;24.91;54.78
3464;BME280;3551;41.578;24.706;2022-09-17T07:48:19;90491.41;;;24.92;54.30
3464;BME280;3551;41.578;24.706;2022-09-17T07:50:46;90491.88;;;24.85;53.31
3464;BME280;3551;41.578;24.706;2022-09-17T07:53:13;90493.38;;;25.14;54.81
3464;BME280;3551;41.578;24.706;2022-09-17T07:55:41;90501.59;;;24.97;54.08
3464;BME280;3551;41.578;24.706;2022-09-17T07:58:09;90499.84;;;24.94;53.78
3464;BME280;3551;41.578;24.706;2022-09-17T08:00:36;90495.13;;;25.06;54.13
3464;BME280;3551;41.578;24.706;2022-09-17T08:03:03;90498.81;;;25.31;52.95
3464;BME280;3551;41.578;24.706;2022-09-17T08:05:31;90501.81;;;25.49;53.30
3464;BME280;3551;41.578;24.706;2022-09-17T08:07:58;90496.06;;;25.47;51.84
3464;BME280;3551;41.578;24.706;2022-09-17T08:10:25;90501.31;;;25.56;52.44
3464;BME280;3551;41.578;24.706;2022-09-17T08:12:54;90503.78;;;25.65;51.50
3464;BME280;3551;41.578;24.706;2022-09-17T08:15:24;90506.03;;;25.61;51.76
3464;BME280;3551;41.578;24.706;2022-09-17T08:17:51;90519.22;;;25.35;51.24
3464;BME280;3551;41.578;24.706;2022-09-17T08:20:18;90521.22;;;25.29;51.53
3464;BME280;3551;41.578;24.706;2022-09-17T08:22:46;90526.19;;;25.25;50.22
3464;BME280;3551;41.578;24.706;2022-09-17T08:25:13;90493.38;;;25.14;51.06
3464;BME280;3551;41.578;24.706;2022-09-17T08:27:40;90515.25;;;25.36;51.20
3464;BME280;3551;41.578;24.706;2022-09-17T08:30:07;90515.75;;;25.24;52.13
3464;BME280;3551;41.578;24.706;2022-09-17T08:32:36;90505.56;;;25.18;51.57
3464;BME280;3551;41.578;24.706;2022-09-17T08:35:03;90501.31;;;25.23;51.58
3464;BME280;3551;41.578;24.706;2022-09-17T08:37:30;90503.81;;;25.32;51.55
3464;BME280;3551;41.578;24.706;2022-09-17T08:39:57;90501.56;;;25.14;52.00
3464;BME280;3551;41.578;24.706;2022-09-17T08:42:28;90508.28;;;25.35;52.27
3464;BME280;3551;41.578;24.706;2022-09-17T08:44:58;90495.59;;;25.49;51.97
3464;BME280;3551;41.578;24.706;2022-09-17T08:47:27;90503.03;;;25.48;52.05
3464;BME280;3551;41.578;24.706;2022-09-17T08:49:59;90494.56;;;25.57;51.68
3464;BME280;3551;41.578;24.706;2022-09-17T08:53:01;90480.88;;;25.57;50.20
3464;BME280;3551;41.578;24.706;2022-09-17T08:55:36;90482.09;;;25.73;49.86
3464;BME280;3551;41.578;24.706;2022-09-17T09:01:13;90485.63;;;25.62;51.30
3464;BME280;3551;41.578;24.706;2022-09-17T09:03:58;90474.66;;;25.51;51.67
3464;BME280;3551;41.578;24.706;2022-09-17T09:06:31;90482.34;;;25.64;52.61
3464;BME280;3551;41.578;24.706;2022-09-17T09:09:02;90478.13;;;25.68;52.69
3464;BME280;3551;41.578;24.706;2022-09-17T09:11:31;90482.13;;;25.62;50.53
3464;BME280;3551;41.578;24.706;2022-09-17T09:14:04;90480.63;;;25.55;51.54
3464;BME280;3551;41.578;24.706;2022-09-17T09:16:37;90477.34;;;25.73;51.27
3464;BME280;3551;41.578;24.706;2022-09-17T09:19:16;90475.56;;;25.87;50.21
3464;BME280;3551;41.578;24.706;2022-09-17T09:21:57;90477.63;;;25.70;50.70
3464;BME280;3551;41.578;24.706;2022-09-17T09:24:35;90481.16;;;25.48;51.51
3464;BME280;3551;41.578;24.706;2022-09-17T09:27:14;90480.41;;;25.48;50.84
3464;BME280;3551;41.578;24.706;2022-09-17T09:29:47;90483.31;;;25.72;50.83
3464;BME280;3551;41.578;24.706;2022-09-17T09:32:26;90458.38;;;25.87;50.83
3464;BME280;3551;41.578;24.706;2022-09-17T09:34:55;90471.72;;;26.07;52.28
3464;BME280;3551;41.578;24.706;2022-09-17T09:37:28;90463.50;;;26.07;52.76
3464;BME280;3551;41.578;24.706;2022-09-17T09:40:02;90453.84;;;26.00;51.40
3464;BME280;3551;41.578;24.706;2022-09-17T09:42:34;90451.09;;;26.00;50.42
3464;BME280;3551;41.578;24.706;2022-09-17T09:45:12;90461.19;;;25.64;51.46
3464;BME280;3551;41.578;24.706;2022-09-17T09:47:51;90449.03;;;25.49;51.50
3464;BME280;3551;41.578;24.706;2022-09-17T09:50:29;90451.72;;;25.71;49.98
3464;BME280;3551;41.578;24.706;2022-09-17T09:53:07;90461.63;;;25.85;50.87
3464;BME280;3551;41.578;24.706;2022-09-17T09:55:52;90484.56;;;25.77;49.85
3464;BME280;3551;41.578;24.706;2022-09-17T09:58:30;90455.91;;;25.83;50.57
3464;BME280;3551;41.578;24.706;2022-09-17T10:00:57;90449.63;;;25.94;50.68
3464;BME280;3551;41.578;24.706;2022-09-17T10:03:26;90447.59;;;26.05;50.96
3464;BME280;3551;41.578;24.706;2022-09-17T10:05:57;90445.84;;;26.02;49.78
3464;BME280;3551;41.578;24.706;2022-09-17T10:08:27;90450.97;;;25.70;49.98
3464;BME280;3551;41.578;24.706;2022-09-17T10:10:57;90454.84;;;25.97;50.63
3464;BME280;3551;41.578;24.706;2022-09-17T10:13:26;90405.63;;;25.75;49.65
3464;BME280;3551;41.578;24.706;2022-09-17T10:15:53;90454.16;;;25.86;51.55
3464;BME280;3551;41.578;24.706;2022-09-17T10:18:22;90452.66;;;25.85;51.71
3464;BME280;3551;41.578;24.706;2022-09-17T10:20:54;90448.38;;;26.00;51.84
3464;BME280;3551;41.578;24.706;2022-09-17T10:23:22;90463.81;;;26.03;51.07
3464;BME280;3551;41.578;24.706;2022-09-17T10:25:52;90448.06;;;26.09;51.66
3464;BME280;3551;41.578;24.706;2022-09-17T10:28:38;90441.84;;;26.14;49.81
3464;BME280;3551;41.578;24.706;2022-09-17T10:31:08;90450.81;;;26.15;48.90
3464;BME280;3551;41.578;24.706;2022-09-17T10:33:39;90443.78;;;26.25;49.76
3464;BME280;3551;41.578;24.706;2022-09-17T10:36:08;90446.72;;;26.33;50.16
3464;BME280;3551;41.578;24.706;2022-09-17T10:38:39;90450.16;;;26.39;50.96
3464;BME280;3551;41.578;24.706;2022-09-17T10:41:16;90447.25;;;26.25;49.42
3464;BME280;3551;41.578;24.706;2022-09-17T10:43:44;90429.28;;;25.72;51.46
3464;BME280;3551;41.578;24.706;2022-09-17T10:46:15;90438.81;;;25.44;52.42
3464;BME280;3551;41.578;24.706;2022-09-17T10:48:45;90444.03;;;25.47;52.39
3464;BME280;3551;41.578;24.706;2022-09-17T10:51:21;90453.75;;;25.59;52.77
3464;BME280;3551;41.578;24.706;2022-09-17T10:56:53;90454.00;;;25.34;51.75
3464;BME280;3551;41.578;24.706;2022-09-17T10:59:46;90466.22;;;25.33;54.16
3464;BME280;3551;41.578;24.706;2022-09-17T11:02:56;90449.03;;;25.49;52.57
3464;BME280;3551;41.578;24.706;2022-09-17T11:05:39;90453.75;;;25.48;53.74
3464;BME280;3551;41.578;24.706;2022-09-17T11:08:16;90458.38;;;25.87;52.55
3464;BME280;3551;41.578;24.706;2022-09-17T11:10:55;90461.63;;;25.85;53.09
3464;BME280;3551;41.578;24.706;2022-09-17T11:13:33;90458.75;;;26.18;54.03
3464;BME280;3551;41.578;24.706;2022-09-17T11:16:17;90462.97;;;26.25;53.60
3464;BME280;3551;41.578;24.706;2022-09-17T11:18:53;90460.66;;;26.35;53.22
3464;BME280;3551;41.578;24.706;2022-09-17T11:21:44;90459.13;;;26.39;53.91
3464;BME280;3551;41.578;24.706;2022-09-17T11:24:32;90451.53;;;26.10;53.88
3464;BME280;3551;41.578;24.706;2022-09-17T11:27:14;90450.53;;;26.18;53.50
3464;BME280;3551;41.578;24.706;2022-09-17T11:30:09;90444.09;;;26.05;55.21
3464;BME280;3551;41.578;24.706;2022-09-17T11:35:31;90437.69;;;25.91;55.83
3464;BME280;3551;41.578;24.706;2022-09-17T11:38:04;90434.84;;;25.56;56.38
3464;BME280;3551;41.578;24.706;2022-09-17T11:40:38;90425.63;;;25.59;56.95
3464;BME280;3551;41.578;24.706;2022-09-17T11:43:15;90421.38;;;25.47;58.05
3464;BME280;3551;41.578;24.706;2022-09-17T11:45:52;90426.63;;;25.56;57.47
3464;BME280;3551;41.578;24.706;2022-09-17T11:48:28;90407.66;;;25.63;56.65
3464;BME280;3551;41.578;24.706;2022-09-17T11:51:01;90419.56;;;25.71;56.05
3464;BME280;3551;41.578;24.706;2022-09-17T11:53:31;90437.38;;;26.06;55.42
3464;BME280;3551;41.578;24.706;2022-09-17T11:56:03;90408.44;;;26.16;53.76
3464;BME280;3551;41.578;24.706;2022-09-17T11:58:41;90399.56;;;25.93;55.65
3464;BME280;3551;41.578;24.706;2022-09-17T12:01:14;90396.34;;;25.95;55.72
3464;BME280;3551;41.578;24.706;2022-09-17T12:03:48;90402.53;;;25.95;54.26
3464;BME280;3551;41.578;24.706;2022-09-17T12:06:20;90386.13;;;25.90;54.45
3464;BME280;3551;41.578;24.706;2022-09-17T12:08:52;90383.94;;;25.83;54.08
3464;BME280;3551;41.578;24.706;2022-09-17T12:11:26;90371.22;;;25.85;55.18
3464;BME280;3551;41.578;24.706;2022-09-17T12:14:02;90357.28;;;25.83;55.03
3464;BME280;3551;41.578;24.706;2022-09-17T12:16:36;90383.28;;;26.12;54.11
3464;BME280;3551;41.578;24.706;2022-09-17T12:19:10;90365.16;;;25.98;55.35
3464;BME280;3551;41.578;24.706;2022-09-17T12:21:41;90374.16;;;25.93;56.39
3464;BME280;3551;41.578;24.706;2022-09-17T12:24:15;90375.38;;;25.97;55.74
3464;BME280;3551;41.578;24.706;2022-09-17T12:27:10;90362.97;;;25.91;56.04
3464;BME280;3551;41.578;24.706;2022-09-17T12:32:55;90346.16;;;25.64;56.99
3464;BME280;3551;41.578;24.706;2022-09-17T12:41:34;90327.22;;;25.66;57.43
3464;BME280;3551;41.578;24.706;2022-09-17T12:44:17;90339.81;;;25.86;56.44
3464;BME280;3551;41.578;24.706;2022-09-17T12:46:56;90332.13;;;25.85;56.38
3464;BME280;3551;41.578;24.706;2022-09-17T12:49:51;90330.84;;;25.91;55.29
3464;BME280;3551;41.578;24.706;2022-09-17T12:52:33;90337.69;;;25.68;56.63
3464;BME280;3551;41.578;24.706;2022-09-17T12:55:20;90317.53;;;25.65;56.35
3464;BME280;3551;41.578;24.706;2022-09-17T12:58:00;90312.06;;;25.60;56.89
3464;BME280;3551;41.578;24.706;2022-09-17T13:00:33;90334.50;;;25.58;57.10
3464;BME280;3551;41.578;24.706;2022-09-17T13:03:06;90338.22;;;25.61;57.26
3464;BME280;3551;41.578;24.706;2022-09-17T13:14:36;90300.84;;;25.63;55.82
3464;BME280;3551;41.578;24.706;2022-09-17T13:17:12;90304.38;;;25.58;55.18
3464;BME280;3551;41.578;24.706;2022-09-17T13:19:51;90304.28;;;25.75;54.77
3464;BME280;3551;41.578;24.706;2022-09-17T13:22:28;90301.94;;;25.49;55.86
3464;BME280;3551;41.578;24.706;2022-09-17T13:25:04;90308.16;;;25.50;54.12
3464;BME280;3551;41.578;24.706;2022-09-17T13:27:32;90276.84;;;25.34;55.37
3464;BME280;3551;41.578;24.706;2022-09-17T13:30:03;90300.63;;;25.61;55.04
3464;BME280;3551;41.578;24.706;2022-09-17T13:32:48;90294.13;;;25.64;55.82
3464;BME280;3551;41.578;24.706;2022-09-17T13:35:49;90296.66;;;25.62;56.63
3464;BME280;3551;41.578;24.706;2022-09-17T13:38:20;90279.06;;;25.41;56.06
3464;BME280;3551;41.578;24.706;2022-09-17T13:40:48;90287.31;;;25.30;56.83
3464;BME280;3551;41.578;24.706;2022-09-17T13:43:19;90282.56;;;25.36;57.96
3464;BME280;3551;41.578;24.706;2022-09-17T13:46:04;90274.38;;;25.25;58.00
3464;BME280;3551;41.578;24.706;2022-09-17T13:48:43;90271.53;;;25.01;58.76
3464;BME280;3551;41.578;24.706;2022-09-17T13:51:50;90262.06;;;24.96;58.06
3464;BME280;3551;41.578;24.706;2022-09-17T13:54:20;90260.34;;;24.93;58.71
3464;BME280;3551;41.578;24.706;2022-09-17T13:59:34;90252.41;;;24.95;56.79
3464;BME280;3551;41.578;24.706;2022-09-17T14:02:27;90253.13;;;24.96;57.67
3464;BME280;3551;41.578;24.706;2022-09-17T14:04:55;90240.44;;;24.93;57.67
3464;BME280;3551;41.578;24.706;2022-09-17T14:07:46;90245.38;;;25.05;56.24